»·PEaware :: CGMWT KLAS-KAVX

CGMWT :: KLAS-KAVX

FLIGHT INFORMATION

Flight Status: Arrived
Operator: Unknown
More flights by this operator :: More flights under this callsign
Pilot: Konrad W. (32064)
Aircraft: AERMACCHI MB-339
(M339)
More flights by this aircraft type
Origin: KLAS McCarran Intl
United States
Destination: KAVX Catalina
United States
More flights between these airports :: More routes between these airports
Route: MCCRN5 HEC V21 SXC
File this flight plan on PilotEdge
Remarks:
Altitude:
(Current/Filed)
14,000ft
Speed:
(Current/Filed)
350kts
Departed: 11-Jan-21 08:44 PM
Arrived: 11-Jan-21 09:39 PM
Distance/Time
Traveled:
227nm/0:55
Distance/Time
To Go:
Arrived

Flight Plot

Page will automatically refresh every two minutes.

Flight plan parsing failed; only flown route is shown


Map Options




Map Legend


Flown Route
Filed Route
Departure Airport
Arrival Airport
Navaid (VOR, NDB)
Fix

Horizontal Profiles

Position Reports

Time Latitude Longitude Heading Altitude Ground
Speed
11-Jan-21 20:26 36.095207 -115.162900 181 2110ft 0kts
11-Jan-21 20:27 36.095207 -115.162900 181 2110ft 0kts
11-Jan-21 20:28 36.095207 -115.162900 181 2110ft 0kts
11-Jan-21 20:29 36.095207 -115.162900 181 2110ft 0kts
11-Jan-21 20:30 36.095207 -115.162900 181 2110ft 0kts
11-Jan-21 20:31 36.095207 -115.162900 181 2110ft 0kts
11-Jan-21 20:32 36.095207 -115.162900 181 2110ft 0kts
11-Jan-21 20:33 36.095207 -115.162900 181 2110ft 0kts
11-Jan-21 20:34 36.095207 -115.162900 181 2110ft 0kts
11-Jan-21 20:35 36.095207 -115.162900 181 2110ft 0kts
11-Jan-21 20:36 36.095207 -115.162900 181 2110ft 0kts
11-Jan-21 20:37 36.095207 -115.162900 181 2110ft 0kts
11-Jan-21 20:38 36.094840 -115.162228 191 2111ft 13kts
11-Jan-21 20:39 36.098617 -115.159436 24 2099ft 24kts
11-Jan-21 20:40 36.099848 -115.157458 97 2093ft 0kts
11-Jan-21 20:41 36.099848 -115.157458 97 2093ft 0kts
11-Jan-21 20:42 36.099848 -115.157457 97 2093ft 0kts
11-Jan-21 20:43 36.078145 -115.168613 207 2608ft 170kts
11-Jan-21 20:44 36.030172 -115.197081 213 4456ft 207kts
11-Jan-21 20:45 35.991497 -115.251930 232 6415ft 222kts
11-Jan-21 20:46 35.947078 -115.320604 232 7228ft 287kts
11-Jan-21 20:47 35.893794 -115.376717 186 8572ft 243kts
11-Jan-21 20:48 35.821163 -115.382978 182 9879ft 286kts
11-Jan-21 20:49 35.738087 -115.387542 182 11199ft 304kts
11-Jan-21 20:50 35.652718 -115.391435 182 12506ft 309kts
11-Jan-21 20:51 35.577924 -115.435251 221 13735ft 307kts
11-Jan-21 20:52 35.517589 -115.515165 231 13949ft 334kts
11-Jan-21 20:53 35.454018 -115.600716 229 13969ft 340kts
11-Jan-21 20:54 35.386393 -115.691992 230 13964ft 372kts
11-Jan-21 20:55 35.316697 -115.786115 230 13987ft 372kts
11-Jan-21 20:56 35.245162 -115.877662 225 13982ft 374kts
11-Jan-21 20:57 35.170216 -115.964540 232 14006ft 371kts
11-Jan-21 20:58 35.100822 -116.058684 229 14016ft 372kts
11-Jan-21 20:59 35.030810 -116.151808 229 14012ft 372kts
11-Jan-21 21:00 34.961328 -116.244474 229 14017ft 372kts
11-Jan-21 21:01 34.891312 -116.337701 229 14010ft 372kts
11-Jan-21 21:02 34.821914 -116.429892 229 13999ft 372kts
11-Jan-21 21:03 34.750460 -116.521249 226 14002ft 373kts
11-Jan-21 21:04 34.677606 -116.610148 227 13999ft 372kts
11-Jan-21 21:05 34.605254 -116.699671 227 13995ft 371kts
11-Jan-21 21:06 34.532795 -116.788789 226 13999ft 371kts
11-Jan-21 21:07 34.460356 -116.877714 226 13973ft 371kts
11-Jan-21 21:08 34.388156 -116.966253 227 13974ft 371kts
11-Jan-21 21:09 34.315443 -117.055250 227 13457ft 374kts
11-Jan-21 21:10 34.242478 -117.144402 227 12804ft 375kts
11-Jan-21 21:11 34.169529 -117.233354 226 12085ft 375kts
11-Jan-21 21:12 34.094463 -117.320777 225 11379ft 375kts
11-Jan-21 21:13 34.023020 -117.405634 226 10403ft 321kts
11-Jan-21 21:14 33.967753 -117.471439 226 9378ft 257kts
11-Jan-21 21:15 33.922746 -117.533772 247 8351ft 244kts
11-Jan-21 21:16 33.898948 -117.606546 252 8038ft 243kts
11-Jan-21 21:17 33.878957 -117.681845 253 8031ft 263kts
11-Jan-21 21:18 33.859014 -117.757974 253 8045ft 272kts
11-Jan-21 21:19 33.838783 -117.835377 253 7589ft 261kts
11-Jan-21 21:20 33.818067 -117.914682 253 6943ft 241kts
11-Jan-21 21:21 33.798711 -117.989274 255 6227ft 229kts
11-Jan-21 21:22 33.770880 -118.054349 222 6001ft 232kts
11-Jan-21 21:23 33.720750 -118.111748 215 5997ft 261kts
11-Jan-21 21:24 33.665966 -118.160643 218 5995ft 259kts
11-Jan-21 21:25 33.605489 -118.215132 218 6004ft 260kts
11-Jan-21 21:27 33.551051 -118.264225 218 5125ft 214kts
11-Jan-21 21:28 33.505510 -118.302016 211 4161ft 186kts
11-Jan-21 21:29 33.468679 -118.335396 217 3994ft 150kts
11-Jan-21 21:30 33.435645 -118.365075 218 3989ft 149kts
11-Jan-21 21:31 33.417568 -118.400613 311 4023ft 142kts
11-Jan-21 21:32 33.455652 -118.409078 8 4006ft 151kts
11-Jan-21 21:33 33.496547 -118.411291 323 3896ft 164kts
11-Jan-21 21:34 33.533149 -118.446981 320 3454ft 163kts
11-Jan-21 21:35 33.542496 -118.425777 136 3338ft 139kts
11-Jan-21 21:36 33.512005 -118.401023 173 3061ft 147kts
11-Jan-21 21:37 33.469738 -118.405804 189 2485ft 158kts
11-Jan-21 21:38 33.426559 -118.410820 175 1899ft 143kts
11-Jan-21 21:39 33.403868 -118.417121 149 1584ft 10kts
11-Jan-21 21:40 33.403581 -118.415434 323 1585ft 0kts
11-Jan-21 21:41 33.403581 -118.415434 323 1585ft 0kts
11-Jan-21 21:42 33.403581 -118.415434 323 1585ft 0kts
11-Jan-21 21:42 33.403581 -118.415434 323 1585ft 0kts
11-Jan-21 21:44 33.403581 -118.415434 323 1585ft 0kts
11-Jan-21 21:44 33.403581 -118.415434 323 1585ft 0kts
11-Jan-21 21:46 33.403581 -118.415434 323 1585ft 0kts

Navigation Log

Ident Type
Flight plan parsing failed, navigation log unavailable